Hlavní strana
METAR-TAF:

METAR-TAF

Letiště :

Kristiansand, Norsko

zeměpisná šířka: 58-12N, zeměpisná délka: 008-05E, výška: 1 m

Aktuální stav počasí

Zpráva byla vytvořena před 26 minutami, v 07:50 UTC
Jihojihozápadní vítr 6 kt
Teplota 10°C
Vlhkost vzduchu 100%
Tlak 1024 hPa
Viditelnost: 7000 m
Skoro jasno ve výšce 500 ft
Oblačno až skoro zataženo ve výšce 900 ft

METAR: ENCN 150750Z 21006KT 7000 FEW005 BKN009 10/10 Q1024

Čas: 09:16 (08:16 UTC)

Předpověď počasí

Zpráva byla vytvořena před 3 hodinami a 16 minutami, v 05:00 UTC
Předpověď platná od 15 v 06 UTC do 15 v 15 UTC
Jihojihozápadní vítr 10 kt
Viditelnost: 9000 m
Polojasno ve výšce 400 ft
Oblačno až skoro zataženo ve výšce 1200 ft
Dočasný
od 15 v 06 UTC do 15 v 15 UTC
Viditelnost: 4000 m
Zataženo ve výšce 400 ft
slabé mrholení, kouřmo

TAF: ENCN 150500Z 1506/1515 21010KT 9000 SCT004 BKN012 TEMPO 1506/1515 4000 -DZ BR OVC004

Stav a předpovědi počasí z více než 4 000 letišť (zprávy METAR a TAF).

Červené a žluté tečky na mapě představují dostupné meteorologické stanice.

Když kurzor umístíte na tečku, zobrazí se název stanice.

Pak kliknutím zobrazíte stav a předpověď počasí.

Chcete-li změnit mapu, kliknutím na zelené tlačítko se znaménkem +mapu přiblížíte, kliknutím na zelené tlačítko se znaménkem – mapu oddálíte a kliknutím na zelené šipky přejdete na sousední mapy.


METAR-TAF: